createdAt,value
2022-08-22T00:00:15.007Z,14.54
2022-08-22T00:03:00.232Z,19.01
2022-08-22T00:03:06.868Z,14.64
2022-08-22T00:03:42.520Z,14.56
2022-08-22T00:06:52.275Z,14.52
2022-08-22T00:09:55.230Z,14.34
2022-08-22T00:12:50.756Z,14.41
2022-08-22T00:15:47.379Z,14.22
2022-08-22T00:18:51.001Z,14.30
2022-08-22T00:21:53.358Z,14.27
2022-08-22T00:25:01.725Z,14.50
2022-08-22T00:27:56.762Z,14.15
2022-08-22T00:31:02.316Z,14.33
2022-08-22T00:34:03.916Z,14.27
2022-08-22T00:37:12.090Z,14.17
2022-08-22T00:40:08.787Z,14.08
2022-08-22T00:43:08.381Z,13.96
2022-08-22T00:46:26.285Z,13.94
2022-08-22T00:49:12.679Z,14.00
2022-08-22T00:52:37.678Z,13.82
2022-08-22T00:55:37.149Z,13.90
2022-08-22T00:58:55.574Z,13.90
2022-08-22T01:02:21.697Z,13.84
2022-08-22T01:05:42.125Z,13.81
2022-08-22T01:08:37.744Z,13.80
2022-08-22T01:11:39.338Z,13.78
2022-08-22T01:14:51.235Z,13.75
2022-08-22T01:17:54.369Z,13.72
2022-08-22T01:20:41.506Z,13.71
2022-08-22T01:23:59.783Z,13.70
2022-08-22T01:27:25.117Z,13.59
2022-08-22T01:30:31.586Z,13.48
2022-08-22T01:33:30.225Z,13.53
2022-08-22T01:36:16.600Z,13.49
2022-08-22T01:39:30.753Z,13.45
2022-08-22T01:42:34.880Z,13.25
2022-08-22T01:45:33.527Z,13.37
2022-08-22T01:48:38.335Z,13.34
2022-08-22T01:51:44.933Z,13.28
2022-08-22T01:54:49.779Z,13.36
2022-08-22T01:57:55.910Z,13.37
2022-08-22T02:01:08.411Z,13.15
2022-08-22T02:04:14.292Z,13.20
2022-08-22T02:07:05.468Z,13.16
2022-08-22T02:10:27.520Z,13.17
2022-08-22T02:13:25.178Z,13.19
2022-08-22T02:16:45.985Z,13.13
2022-08-22T02:19:44.566Z,13.13
2022-08-22T02:22:52.947Z,12.93
2022-08-22T02:26:02.253Z,13.01
2022-08-22T02:29:05.070Z,13.03
2022-08-22T02:32:06.690Z,12.93
2022-08-22T02:35:15.499Z,12.90
2022-08-22T02:38:21.210Z,12.87
2022-08-22T02:41:38.053Z,12.81
2022-08-22T02:44:37.161Z,12.75
2022-08-22T02:47:33.080Z,12.71
2022-08-22T02:50:33.217Z,12.51
2022-08-22T02:53:58.069Z,12.65
2022-08-22T02:57:02.710Z,12.63
2022-08-22T03:00:31.720Z,12.64
2022-08-22T03:03:24.142Z,12.26
2022-08-22T03:06:32.600Z,12.46
2022-08-22T03:09:25.586Z,12.54
2022-08-22T03:12:40.115Z,12.55
2022-08-22T03:15:34.205Z,12.26
2022-08-22T03:18:45.467Z,12.50
2022-08-22T03:21:50.496Z,12.48
2022-08-22T03:25:07.391Z,12.29
2022-08-22T03:28:02.835Z,12.39
2022-08-22T03:31:14.070Z,12.40
2022-08-22T03:34:23.827Z,12.31
2022-08-22T03:37:26.182Z,12.34
2022-08-22T03:40:43.790Z,12.39
2022-08-22T03:44:07.913Z,12.35
2022-08-22T03:47:39.277Z,12.18
2022-08-22T03:51:07.910Z,12.14
2022-08-22T03:54:35.680Z,12.07
2022-08-22T03:57:35.666Z,11.96
2022-08-22T04:00:45.488Z,11.89
2022-08-22T04:04:09.386Z,11.83
2022-08-22T04:07:46.496Z,11.88
2022-08-22T04:10:55.125Z,11.94
2022-08-22T04:13:56.398Z,11.89
2022-08-22T04:17:17.251Z,11.71
2022-08-22T04:20:25.065Z,11.70
2022-08-22T04:23:27.485Z,11.75
2022-08-22T04:26:41.460Z,11.71
2022-08-22T04:29:37.251Z,11.62
2022-08-22T04:32:39.281Z,11.69
2022-08-22T04:35:36.359Z,11.72
2022-08-22T04:38:47.706Z,11.48
2022-08-22T04:41:53.092Z,11.70
2022-08-22T04:45:03.663Z,11.82
2022-08-22T04:48:00.073Z,11.89
2022-08-22T04:50:57.889Z,11.84
2022-08-22T04:53:56.480Z,12.18
2022-08-22T04:57:10.977Z,12.03
2022-08-22T05:00:06.521Z,12.05
2022-08-22T05:02:57.126Z,11.94
2022-08-22T05:05:48.256Z,12.06
2022-08-22T05:08:39.587Z,12.29
2022-08-22T05:11:27.668Z,12.22
2022-08-22T05:14:32.609Z,13.02
2022-08-22T05:17:24.570Z,13.72
2022-08-22T05:20:17.615Z,14.51
2022-08-22T05:23:23.328Z,15.01
2022-08-22T05:26:12.611Z,15.17
2022-08-22T05:29:07.858Z,15.08
2022-08-22T05:32:01.929Z,14.86
2022-08-22T05:34:51.673Z,15.09
2022-08-22T05:37:47.386Z,15.06
2022-08-22T05:40:35.960Z,14.93
2022-08-22T05:43:26.343Z,14.77
2022-08-22T05:46:20.443Z,14.45
2022-08-22T05:49:38.775Z,14.45
2022-08-22T05:52:42.545Z,14.61
2022-08-22T05:55:47.140Z,14.81
2022-08-22T05:58:39.691Z,14.84
2022-08-22T06:01:41.532Z,14.86
2022-08-22T06:04:43.116Z,15.04
2022-08-22T06:07:43.751Z,14.91
2022-08-22T06:10:48.283Z,15.32
2022-08-22T06:13:41.178Z,15.30
2022-08-22T06:16:36.835Z,15.52
2022-08-22T06:19:24.275Z,15.67
2022-08-22T06:22:18.623Z,15.89
2022-08-22T06:25:19.748Z,16.01
2022-08-22T06:28:13.761Z,16.26
2022-08-22T06:31:03.421Z,16.07
2022-08-22T06:34:27.480Z,16.55
2022-08-22T06:37:20.745Z,16.77
2022-08-22T06:40:10.645Z,16.93
2022-08-22T06:42:58.473Z,16.95
2022-08-22T06:45:45.163Z,17.13
2022-08-22T06:48:33.170Z,17.25
2022-08-22T06:51:21.117Z,17.48
2022-08-22T06:54:17.768Z,17.51
2022-08-22T06:57:06.572Z,17.60
2022-08-22T06:59:55.419Z,17.82
2022-08-22T07:02:48.861Z,17.91
2022-08-22T07:05:39.072Z,18.06
2022-08-22T07:08:28.571Z,18.23
2022-08-22T07:11:21.762Z,18.22
2022-08-22T07:14:12.145Z,18.34
2022-08-22T07:17:05.009Z,18.64
2022-08-22T07:20:00.118Z,18.54
2022-08-22T07:22:58.577Z,18.79
2022-08-22T07:25:54.861Z,18.70
2022-08-22T07:28:57.948Z,18.79
2022-08-22T07:31:59.334Z,19.14
2022-08-22T07:34:51.859Z,19.37
2022-08-22T07:38:16.009Z,19.57
2022-08-22T07:41:11.451Z,19.39
2022-08-22T07:44:23.838Z,19.75
2022-08-22T07:47:21.080Z,19.77
2022-08-22T07:50:20.066Z,19.73
2022-08-22T07:53:27.850Z,19.88
2022-08-22T07:56:19.582Z,20.33
2022-08-22T07:59:12.922Z,20.16
2022-08-22T08:02:01.737Z,20.31
2022-08-22T08:04:51.110Z,20.24
2022-08-22T08:07:43.739Z,20.48
2022-08-22T08:10:34.773Z,20.48
2022-08-22T08:13:43.953Z,20.49
2022-08-22T08:16:43.059Z,20.69
2022-08-22T08:19:33.329Z,20.68
2022-08-22T08:22:24.747Z,20.81
2022-08-22T08:25:17.708Z,20.89
2022-08-22T08:28:23.460Z,21.25
2022-08-22T08:31:09.959Z,21.34
2022-08-22T08:34:05.135Z,21.30
2022-08-22T08:37:01.054Z,21.38
2022-08-22T08:39:53.314Z,21.62
2022-08-22T08:43:06.228Z,21.83
2022-08-22T08:46:15.222Z,22.02
2022-08-22T08:49:11.238Z,22.24
2022-08-22T08:52:21.851Z,22.21
2022-08-22T08:55:41.166Z,22.33
2022-08-22T08:58:43.244Z,22.53
2022-08-22T09:01:38.564Z,22.81
2022-08-22T09:04:57.344Z,22.83
2022-08-22T09:08:17.202Z,23.11
2022-08-22T09:11:28.235Z,23.27
2022-08-22T09:14:26.946Z,23.27
2022-08-22T09:17:36.460Z,23.45
2022-08-22T09:20:46.344Z,23.58
2022-08-22T09:24:14.352Z,23.71
2022-08-22T09:27:11.944Z,23.76
2022-08-22T09:30:05.419Z,23.74
2022-08-22T09:33:12.552Z,23.89
2022-08-22T09:36:06.897Z,23.82
2022-08-22T09:39:19.079Z,24.17
2022-08-22T09:42:28.051Z,24.12
2022-08-22T09:45:36.326Z,24.41
2022-08-22T09:48:47.296Z,24.48
2022-08-22T09:51:44.862Z,24.60
2022-08-22T09:54:43.506Z,24.57
2022-08-22T09:57:40.241Z,24.68
2022-08-22T10:00:42.860Z,24.75
2022-08-22T10:04:06.994Z,24.88
2022-08-22T10:07:11.715Z,24.96
2022-08-22T10:10:17.156Z,24.99
2022-08-22T10:13:35.951Z,25.24
2022-08-22T10:16:30.761Z,25.34
2022-08-22T10:19:46.789Z,25.48
2022-08-22T10:22:52.636Z,25.57
2022-08-22T10:25:48.162Z,25.45
2022-08-22T10:28:42.010Z,25.52
2022-08-22T10:31:58.768Z,25.49
2022-08-22T10:34:51.889Z,25.75
2022-08-22T10:37:48.901Z,25.89
2022-08-22T10:40:42.231Z,26.00
2022-08-22T10:43:40.926Z,25.99
2022-08-22T10:46:58.698Z,25.84
2022-08-22T10:49:56.825Z,26.00
2022-08-22T10:52:49.274Z,26.06
2022-08-22T10:55:40.714Z,25.90
2022-08-22T10:58:35.418Z,26.14
2022-08-22T11:01:38.613Z,26.13
2022-08-22T11:04:39.144Z,26.10
2022-08-22T11:07:28.839Z,26.45
2022-08-22T11:10:30.406Z,26.53
2022-08-22T11:13:29.308Z,26.35
2022-08-22T11:16:18.556Z,26.65
2022-08-22T11:19:26.220Z,26.72
2022-08-22T11:22:30.671Z,26.77
2022-08-22T11:25:36.193Z,26.87
2022-08-22T11:28:44.253Z,26.96
2022-08-22T11:31:51.254Z,27.12
2022-08-22T11:35:00.522Z,27.19
2022-08-22T11:37:51.271Z,27.24
2022-08-22T11:41:00.517Z,27.03
2022-08-22T11:44:00.346Z,27.15
2022-08-22T11:46:54.988Z,26.99
2022-08-22T11:50:13.480Z,27.17
2022-08-22T11:53:36.821Z,27.37
2022-08-22T11:56:30.429Z,27.31
2022-08-22T11:59:28.262Z,27.68
2022-08-22T12:02:21.505Z,27.88
2022-08-22T12:05:24.524Z,28.04
2022-08-22T12:08:37.759Z,28.13
2022-08-22T12:12:08.062Z,28.30
2022-08-22T12:15:19.258Z,28.38
2022-08-22T12:18:33.058Z,28.46
2022-08-22T12:21:38.503Z,28.80
2022-08-22T12:24:43.645Z,28.91
2022-08-22T12:27:48.168Z,29.05
2022-08-22T12:30:54.902Z,29.13
2022-08-22T12:33:48.287Z,29.17
2022-08-22T12:36:55.699Z,29.19
2022-08-22T12:40:08.834Z,29.11
2022-08-22T12:43:42.502Z,29.15
2022-08-22T12:47:14.654Z,29.07
2022-08-22T12:50:19.783Z,29.42
2022-08-22T12:53:33.009Z,29.31
2022-08-22T12:56:51.675Z,29.40
2022-08-22T12:59:45.225Z,29.57
2022-08-22T13:02:35.045Z,29.64
2022-08-22T13:05:26.219Z,29.55
2022-08-22T13:08:21.292Z,28.91
2022-08-22T13:11:22.971Z,29.06
2022-08-22T13:14:15.652Z,28.32
2022-08-22T13:17:23.617Z,28.51
2022-08-22T13:20:22.229Z,28.71
2022-08-22T13:23:17.615Z,29.04
2022-08-22T13:26:34.407Z,29.18
2022-08-22T13:29:42.799Z,28.73
2022-08-22T13:32:44.608Z,28.42
2022-08-22T13:35:44.663Z,27.95
2022-08-22T13:38:47.081Z,27.55
2022-08-22T13:41:44.199Z,27.60
2022-08-22T13:44:44.993Z,28.34
2022-08-22T13:47:34.892Z,28.46
2022-08-22T13:50:25.183Z,28.60
2022-08-22T13:53:24.530Z,28.64
2022-08-22T13:56:19.471Z,28.74
2022-08-22T13:59:34.256Z,28.84
2022-08-22T14:02:23.429Z,29.15
2022-08-22T14:05:25.975Z,29.06
2022-08-22T14:08:18.563Z,28.90
2022-08-22T14:11:21.421Z,28.98
2022-08-22T14:14:08.865Z,28.82
2022-08-22T14:16:58.157Z,28.85
2022-08-22T14:19:59.013Z,28.92
2022-08-22T14:23:04.030Z,28.91
2022-08-22T14:25:51.979Z,29.09
2022-08-22T14:28:38.969Z,28.93
2022-08-22T14:31:28.279Z,28.95
2022-08-22T14:34:15.882Z,29.03
2022-08-22T14:37:15.869Z,28.72
2022-08-22T14:40:21.554Z,29.05
2022-08-22T14:43:22.519Z,29.15
2022-08-22T14:46:14.605Z,29.16
2022-08-22T14:49:26.817Z,28.89
2022-08-22T14:52:40.661Z,28.95
2022-08-22T14:55:27.166Z,28.92
2022-08-22T14:58:26.453Z,29.08
2022-08-22T15:01:18.276Z,28.94
2022-08-22T15:04:08.794Z,28.88
2022-08-22T15:06:58.803Z,28.75
2022-08-22T15:10:21.630Z,28.86
2022-08-22T15:13:10.096Z,28.47
2022-08-22T15:16:03.553Z,28.58
2022-08-22T15:18:53.137Z,28.30
2022-08-22T15:21:41.339Z,28.48
2022-08-22T15:24:28.606Z,28.58
2022-08-22T15:27:19.488Z,28.50
2022-08-22T15:30:18.764Z,28.71
2022-08-22T15:33:10.665Z,28.84
2022-08-22T15:36:15.880Z,28.73
2022-08-22T15:39:30.201Z,28.76
2022-08-22T15:42:26.062Z,28.70
2022-08-22T15:45:33.759Z,28.54
2022-08-22T15:48:31.957Z,28.59
2022-08-22T15:51:41.405Z,28.40
2022-08-22T15:54:46.802Z,28.01
2022-08-22T15:57:40.286Z,27.84
2022-08-22T16:01:05.547Z,27.25
2022-08-22T16:04:12.530Z,27.45
2022-08-22T16:07:01.217Z,27.42
2022-08-22T16:09:52.086Z,27.04
2022-08-22T16:12:44.330Z,27.18
2022-08-22T16:15:52.904Z,27.07
2022-08-22T16:18:44.956Z,27.04
2022-08-22T16:21:31.176Z,27.04
2022-08-22T16:24:17.817Z,26.96
2022-08-22T16:27:25.689Z,26.93
2022-08-22T16:30:14.824Z,26.91
2022-08-22T16:33:01.502Z,26.55
2022-08-22T16:36:25.753Z,26.80
2022-08-22T16:39:21.307Z,26.72
2022-08-22T16:42:19.397Z,26.86
2022-08-22T16:45:27.418Z,26.67
2022-08-22T16:48:23.500Z,26.54
2022-08-22T16:51:18.632Z,26.44
2022-08-22T16:54:08.833Z,26.52
2022-08-22T16:57:17.538Z,26.45
2022-08-22T17:00:13.426Z,26.68
2022-08-22T17:03:18.413Z,26.85
2022-08-22T17:06:28.401Z,26.76
2022-08-22T17:09:47.544Z,26.62
2022-08-22T17:13:06.250Z,26.50
2022-08-22T17:16:33.977Z,26.31
2022-08-22T17:19:52.574Z,26.06
2022-08-22T17:22:45.172Z,26.02
2022-08-22T17:25:53.258Z,25.92
2022-08-22T17:28:48.555Z,25.56
2022-08-22T17:31:55.496Z,25.57
2022-08-22T17:35:21.767Z,25.45
2022-08-22T17:38:24.979Z,25.34
2022-08-22T17:41:29.462Z,25.36
2022-08-22T17:44:25.864Z,25.35
2022-08-22T17:47:17.637Z,25.30
2022-08-22T17:50:13.912Z,25.22
2022-08-22T17:53:05.464Z,25.32
2022-08-22T17:56:00.583Z,25.11
2022-08-22T17:59:21.123Z,24.97
2022-08-22T18:02:17.034Z,24.64
2022-08-22T18:05:16.222Z,24.90
2022-08-22T18:08:02.475Z,24.78
2022-08-22T18:10:58.030Z,24.63
2022-08-22T18:14:05.072Z,24.27
2022-08-22T18:16:55.583Z,23.98
2022-08-22T18:20:29.779Z,24.02
2022-08-22T18:23:39.274Z,23.69
2022-08-22T18:26:41.713Z,23.61
2022-08-22T18:29:45.006Z,23.49
2022-08-22T18:32:39.837Z,23.26
2022-08-22T18:35:42.884Z,23.17
2022-08-22T18:38:49.913Z,23.11
2022-08-22T18:41:55.650Z,22.95
2022-08-22T18:44:45.152Z,22.54
2022-08-22T18:47:34.427Z,22.70
2022-08-22T18:50:30.259Z,22.60
2022-08-22T18:53:38.193Z,22.37
2022-08-22T18:56:24.626Z,22.22
2022-08-22T18:59:20.091Z,22.06
2022-08-22T19:02:55.579Z,21.82
2022-08-22T19:05:58.038Z,21.66
2022-08-22T19:09:18.479Z,21.57
2022-08-22T19:12:23.816Z,21.47
2022-08-22T19:15:25.517Z,21.28
2022-08-22T19:18:53.308Z,20.89
2022-08-22T19:22:22.841Z,21.19
2022-08-22T19:25:19.377Z,21.21
2022-08-22T19:28:09.426Z,21.15
2022-08-22T19:31:23.248Z,21.10
2022-08-22T19:34:33.992Z,21.01
2022-08-22T19:37:32.101Z,20.96
2022-08-22T19:40:45.073Z,20.92
2022-08-22T19:43:34.698Z,20.89
2022-08-22T19:46:36.779Z,20.60
2022-08-22T19:49:33.384Z,20.72
2022-08-22T19:52:49.442Z,20.55
2022-08-22T19:55:39.027Z,20.62
2022-08-22T19:58:46.758Z,20.46
2022-08-22T20:01:45.824Z,20.16
2022-08-22T20:04:46.434Z,20.09
2022-08-22T20:07:42.118Z,20.07
2022-08-22T20:10:31.211Z,19.92
2022-08-22T20:13:24.241Z,19.81
2022-08-22T20:16:18.934Z,19.74
2022-08-22T20:19:08.944Z,19.65
2022-08-22T20:22:02.169Z,19.53
2022-08-22T20:25:41.619Z,19.44
2022-08-22T20:28:32.280Z,19.51
2022-08-22T20:31:22.844Z,19.43
2022-08-22T20:34:21.584Z,19.11
2022-08-22T20:37:29.616Z,19.24
2022-08-22T20:40:56.359Z,18.75
2022-08-22T20:43:48.507Z,18.90
2022-08-22T20:46:55.320Z,18.94
2022-08-22T20:49:48.657Z,18.80
2022-08-22T20:52:42.630Z,18.74
2022-08-22T20:55:38.499Z,18.49
2022-08-22T20:58:35.505Z,18.27
2022-08-22T21:01:24.671Z,18.29
2022-08-22T21:04:11.630Z,18.38
2022-08-22T21:07:01.725Z,18.36
2022-08-22T21:10:14.304Z,18.07
2022-08-22T21:13:13.040Z,18.21
2022-08-22T21:16:12.885Z,18.21
2022-08-22T21:19:03.293Z,18.17
2022-08-22T21:21:49.924Z,17.89
2022-08-22T21:24:36.528Z,18.01
2022-08-22T21:27:28.546Z,17.93
2022-08-22T21:30:25.462Z,17.95
2022-08-22T21:33:15.456Z,17.73
2022-08-22T21:36:15.137Z,17.80
2022-08-22T21:39:12.127Z,17.57
2022-08-22T21:42:01.419Z,17.80
2022-08-22T21:44:59.612Z,17.88
2022-08-22T21:47:46.351Z,17.66
2022-08-22T21:50:38.365Z,17.59
2022-08-22T21:53:27.974Z,17.52
2022-08-22T21:56:16.887Z,17.40
2022-08-22T21:59:24.927Z,17.19
2022-08-22T22:02:27.395Z,17.31
2022-08-22T22:05:16.270Z,17.26
2022-08-22T22:08:04.293Z,16.72
2022-08-22T22:10:53.206Z,17.14
2022-08-22T22:13:40.085Z,17.07
2022-08-22T22:16:28.645Z,17.03
2022-08-22T22:19:15.101Z,16.80
2022-08-22T22:22:02.070Z,16.79
2022-08-22T22:24:48.198Z,16.56
2022-08-22T22:27:34.674Z,16.58
2022-08-22T22:30:21.242Z,16.50
2022-08-22T22:33:08.322Z,16.36
2022-08-22T22:35:57.076Z,16.56
2022-08-22T22:38:44.153Z,16.55
2022-08-22T22:41:30.717Z,16.26
2022-08-22T22:44:17.146Z,16.33
2022-08-22T22:47:08.134Z,16.28
2022-08-22T22:49:55.821Z,16.15
2022-08-22T22:52:42.338Z,16.16
2022-08-22T22:55:29.489Z,16.36
2022-08-22T22:58:17.723Z,16.30
2022-08-22T23:01:15.924Z,16.06
2022-08-22T23:04:05.610Z,16.18
2022-08-22T23:06:52.435Z,16.25
2022-08-22T23:09:44.901Z,16.26
2022-08-22T23:12:31.944Z,16.23
2022-08-22T23:15:18.247Z,15.95
2022-08-22T23:18:04.734Z,15.89
2022-08-22T23:20:50.886Z,15.76
2022-08-22T23:23:37.705Z,15.96
2022-08-22T23:26:24.641Z,16.12
2022-08-22T23:29:12.034Z,15.95
2022-08-22T23:32:01.510Z,15.61
2022-08-22T23:34:48.742Z,15.84
2022-08-22T23:37:35.378Z,15.75
2022-08-22T23:40:21.704Z,15.75
2022-08-22T23:43:07.878Z,15.45
2022-08-22T23:45:54.081Z,15.51
2022-08-22T23:48:41.129Z,15.55
2022-08-22T23:51:27.691Z,15.48
2022-08-22T23:54:14.457Z,15.43
2022-08-22T23:57:02.540Z,15.38
2022-08-22T23:59:57.265Z,15.27
